Terminal Aerodrome Forecast
Issued by NWS

Home | Current Version | Previous Version | Text Only | Print | Product List | Glossary On
Versions: 1 2 3 4 5 6 7 8 9 10 11 12
601
FTUS45 KVEF 132320
TAFEED
TAF
KEED 132320Z 1400/1424 36009KT P6SM FEW250
     FM140300 33008KT P6SM FEW250
     FM141700 01014G22KT P6SM SKC=

USA.gov is the U.S. government's official web portal to all federal, state and local government web resources and services.